Time;durP1;ratioP1;P1;durP2;ratioP2;P2;SDS_P1;SDS_P2;PMS_P1;PMS_P2;Temp;Humidity;BMP_temperature;BMP_pressure;BME280_temperature;BME280_humidity;BME280_pressure;Samples;Min_cycle;Max_cycle;Signal;HPM_P1;HPM_P2
2022/12/26 00:01:07;;;;;;;45.00;24.17;;;;;;;;;;5037223;28;20029;-76
2022/12/26 00:03:33;;;;;;;46.03;24.83;;;;;;;;;;5042573;28;20029;-76
2022/12/26 00:05:59;;;;;;;46.97;25.90;;;;;;;;;;5045328;28;20151;-76
2022/12/26 00:08:25;;;;;;;47.45;25.25;;;;;;;;;;5049885;28;20025;-76
2022/12/26 00:10:51;;;;;;;50.15;26.83;;;;;;;;;;5045466;28;20100;-76
2022/12/26 00:13:16;;;;;;;47.33;26.52;;;;;;;;;;5045791;28;20037;-76
2022/12/26 00:15:42;;;;;;;45.78;25.83;;;;;;;;;;5046832;28;20037;-75
2022/12/26 00:18:08;;;;;;;41.17;23.67;;;;;;;;;;5021769;28;20021;-76
2022/12/26 00:20:34;;;;;;;45.22;24.42;;;;;;;;;;5035647;28;20033;-76
2022/12/26 00:23:00;;;;;;;45.97;24.40;;;;;;;;;;5035575;28;20025;-74
2022/12/26 00:25:26;;;;;;;54.30;25.75;;;;;;;;;;5018080;28;20030;-76
2022/12/26 00:27:52;;;;;;;46.85;24.52;;;;;;;;;;5036079;28;20508;-76
2022/12/26 00:30:19;;;;;;;42.92;23.67;;;;;;;;;;5035084;28;20053;-76
2022/12/26 00:32:45;;;;;;;44.47;24.00;;;;;;;;;;5017611;28;20124;-75
2022/12/26 00:35:10;;;;;;;45.88;24.65;;;;;;;;;;5036512;28;20033;-75
2022/12/26 00:37:36;;;;;;;42.60;23.88;;;;;;;;;;5035685;28;20036;-75
2022/12/26 00:40:03;;;;;;;45.03;23.92;;;;;;;;;;5059104;22;20430;-76
2022/12/26 00:42:29;;;;;;;45.78;24.88;;;;;;;;;;5019625;28;20033;-77
2022/12/26 00:44:55;;;;;;;88.70;26.25;;;;;;;;;;5037363;28;20025;-77
2022/12/26 00:47:21;;;;;;;48.95;26.55;;;;;;;;;;5036643;28;20029;-76
2022/12/26 00:49:47;;;;;;;52.95;26.02;;;;;;;;;;5037433;28;20029;-75
2022/12/26 00:52:13;;;;;;;47.20;25.00;;;;;;;;;;5019835;28;20078;-76
2022/12/26 00:54:39;;;;;;;44.72;25.38;;;;;;;;;;5037156;28;20410;-76
2022/12/26 00:57:05;;;;;;;49.05;24.52;;;;;;;;;;5018793;28;20061;-77
2022/12/26 00:59:31;;;;;;;41.78;24.00;;;;;;;;;;5036855;28;20029;-76
2022/12/26 01:01:57;;;;;;;47.75;24.90;;;;;;;;;;5017621;28;20121;-76
2022/12/26 01:04:23;;;;;;;48.53;23.02;;;;;;;;;;5036249;28;20030;-76
2022/12/26 01:06:48;;;;;;;72.45;24.38;;;;;;;;;;5034994;28;20021;-75
2022/12/26 01:09:14;;;;;;;44.22;22.52;;;;;;;;;;5035147;28;20560;-76
2022/12/26 01:11:40;;;;;;;44.83;19.17;;;;;;;;;;5035020;28;20413;-76
2022/12/26 01:14:13;;;;;;;41.55;19.85;;;;;;;;;;5036367;28;20068;-76
2022/12/26 01:16:40;;;;;;;44.03;18.27;;;;;;;;;;5035297;28;20083;-76
2022/12/26 01:19:06;;;;;;;32.55;16.70;;;;;;;;;;5036703;28;20048;-76
2022/12/26 01:21:33;;;;;;;36.97;17.33;;;;;;;;;;5036409;28;20029;-76
2022/12/26 01:23:59;;;;;;;36.70;16.90;;;;;;;;;;5035949;28;20033;-75
2022/12/26 01:26:24;;;;;;;33.85;15.52;;;;;;;;;;5033839;28;20033;-76
2022/12/26 01:28:51;;;;;;;30.95;15.73;;;;;;;;;;5034698;28;20029;-76
2022/12/26 01:31:18;;;;;;;31.60;15.50;;;;;;;;;;5037577;28;20037;-75
2022/12/26 01:33:44;;;;;;;28.95;14.25;;;;;;;;;;5034903;28;20156;-76
2022/12/26 01:36:10;;;;;;;38.78;16.73;;;;;;;;;;5035555;28;20080;-76
2022/12/26 01:38:36;;;;;;;30.67;14.80;;;;;;;;;;5039018;28;20090;-76
2022/12/26 01:41:21;;;;;;;30.25;14.13;;;;;;;;;;5046249;28;20037;-76
2022/12/26 01:43:47;;;;;;;32.20;14.45;;;;;;;;;;5045143;28;20021;-75
2022/12/26 01:46:14;;;;;;;34.30;15.48;;;;;;;;;;5040881;28;20044;-76
2022/12/26 01:48:40;;;;;;;35.42;15.40;;;;;;;;;;5047875;28;20030;-76
2022/12/26 01:51:06;;;;;;;32.55;14.05;;;;;;;;;;5046424;28;20025;-77
2022/12/26 01:53:34;;;;;;;48.78;15.32;;;;;;;;;;5045855;28;20026;-76
2022/12/26 01:56:03;;;;;;;37.72;14.73;;;;;;;;;;5045712;28;20039;-78
2022/12/26 01:58:32;;;;;;;36.10;14.38;;;;;;;;;;5046322;28;20021;-76
2022/12/26 02:00:58;;;;;;;38.53;15.80;;;;;;;;;;5033952;28;20075;-76
2022/12/26 02:06:09;;;;;;;37.00;16.08;;;;;;;;;;5034499;28;20083;-77
2022/12/26 02:08:36;;;;;;;45.17;16.13;;;;;;;;;;5034063;28;20061;-76
2022/12/26 02:11:20;;;;;;;33.75;14.65;;;;;;;;;;5035135;28;20057;-76
2022/12/26 02:13:46;;;;;;;34.00;13.85;;;;;;;;;;5033884;28;20025;-76
2022/12/26 02:16:13;;;;;;;31.80;13.60;;;;;;;;;;5037366;28;20028;-76
2022/12/26 02:18:39;;;;;;;33.25;14.00;;;;;;;;;;5040327;28;20026;-76
2022/12/26 02:21:24;;;;;;;37.60;15.30;;;;;;;;;;5038996;28;20101;-75
2022/12/26 02:23:59;;;;;;;34.65;14.15;;;;;;;;;;5043490;28;20025;-76
2022/12/26 02:26:25;;;;;;;37.15;14.95;;;;;;;;;;5038834;28;20037;-76
2022/12/26 02:29:10;;;;;;;33.85;15.55;;;;;;;;;;5036674;28;20032;-75
2022/12/26 02:31:53;;;;;;;35.15;14.93;;;;;;;;;;5040687;28;20037;-77
2022/12/26 02:34:22;;;;;;;38.63;14.75;;;;;;;;;;5052811;28;20052;-76
2022/12/26 02:36:57;;;;;;;37.70;15.38;;;;;;;;;;5039518;28;20037;-77
2022/12/26 02:39:23;;;;;;;38.33;16.45;;;;;;;;;;5040514;28;20025;-76
2022/12/26 02:42:07;;;;;;;64.30;16.17;;;;;;;;;;5040373;28;20033;-76
2022/12/26 02:47:41;;;;;;;50.72;16.60;;;;;;;;;;5022176;28;20033;-76
2022/12/26 03:13:11;;;;;;;41.38;16.40;;;;;;;;;;5034090;28;20098;-76
2022/12/26 03:18:37;;;;;;;45.22;17.05;;;;;;;;;;4980549;28;20030;-76
2022/12/26 03:21:05;;;;;;;44.30;18.48;;;;;;;;;;5034549;28;20071;-75
2022/12/26 03:23:31;;;;;;;34.00;16.70;;;;;;;;;;5034071;28;20029;-77
2022/12/26 03:28:47;;;;;;;33.38;15.95;;;;;;;;;;5035463;28;20056;-76
2022/12/26 03:31:14;;;;;;;55.83;16.13;;;;;;;;;;5038028;28;20028;-77
2022/12/26 03:36:30;;;;;;;38.40;16.42;;;;;;;;;;5036752;28;20410;-79
2022/12/26 03:39:14;;;;;;;33.65;16.15;;;;;;;;;;5040832;28;20079;-76
2022/12/26 04:21:05;;;;;;;35.65;16.15;;;;;;;;;;5034067;28;20047;-76
2022/12/26 04:46:01;;;;;;;51.13;20.77;;;;;;;;;;5036859;28;20068;-76
2022/12/26 04:51:12;;;;;;;45.15;21.10;;;;;;;;;;5037875;28;20059;-76
2022/12/26 04:53:38;;;;;;;44.63;20.33;;;;;;;;;;5019451;28;20367;-75
2022/12/26 04:56:04;;;;;;;46.38;21.35;;;;;;;;;;5037007;28;20043;-77
2022/12/26 04:58:30;;;;;;;39.90;20.13;;;;;;;;;;5036912;28;20013;-76
2022/12/26 05:09:32;;;;;;;43.65;20.08;;;;;;;;;;5036901;28;20455;-76
2022/12/26 05:11:58;;;;;;;41.10;19.95;;;;;;;;;;5038381;28;20044;-76
2022/12/26 05:14:24;;;;;;;39.08;18.88;;;;;;;;;;5045422;28;20025;-76
2022/12/26 05:30:34;;;;;;;32.95;18.55;;;;;;;;;;5043839;28;20032;-76
2022/12/26 05:35:44;;;;;;;35.65;18.80;;;;;;;;;;5046827;28;20398;-76
2022/12/26 05:38:10;;;;;;;33.83;18.13;;;;;;;;;;5024440;28;20017;-76
2022/12/26 05:40:36;;;;;;;35.22;19.30;;;;;;;;;;5020887;28;20029;-77
2022/12/26 05:43:02;;;;;;;30.75;16.67;;;;;;;;;;5040683;28;20508;-75
2022/12/26 05:45:28;;;;;;;34.55;18.85;;;;;;;;;;5036019;28;20101;-75
2022/12/26 05:47:59;;;;;;;35.05;18.42;;;;;;;;;;5037913;28;20030;-76
2022/12/26 05:50:24;;;;;;;34.03;19.83;;;;;;;;;;5038345;28;20022;-76
2022/12/26 05:52:50;;;;;;;33.97;19.70;;;;;;;;;;5044705;28;20068;-77
2022/12/26 05:55:16;;;;;;;32.35;18.88;;;;;;;;;;5048237;28;20037;-76
2022/12/26 05:57:42;;;;;;;36.40;21.17;;;;;;;;;;5046647;28;20021;-76
2022/12/26 06:00:08;;;;;;;32.45;19.45;;;;;;;;;;5047638;28;20037;-77
2022/12/26 06:02:34;;;;;;;36.08;20.83;;;;;;;;;;5046680;28;20022;-76
2022/12/26 06:05:00;;;;;;;34.30;19.95;;;;;;;;;;5042821;28;20594;-76
2022/12/26 06:07:27;;;;;;;36.10;21.08;;;;;;;;;;5038805;28;20498;-76
2022/12/26 06:09:53;;;;;;;36.80;21.02;;;;;;;;;;5037246;28;20025;-79
2022/12/26 06:12:19;;;;;;;36.22;20.50;;;;;;;;;;5047331;28;20033;-77
2022/12/26 06:14:45;;;;;;;38.80;20.33;;;;;;;;;;5044341;28;20029;-75
2022/12/26 06:17:11;;;;;;;38.35;21.23;;;;;;;;;;5044528;28;20037;-77
2022/12/26 06:19:36;;;;;;;43.15;22.20;;;;;;;;;;5038319;28;20022;-74
2022/12/26 06:22:02;;;;;;;41.53;22.42;;;;;;;;;;5041602;28;20032;-75
2022/12/26 06:24:28;;;;;;;43.50;23.05;;;;;;;;;;5047059;28;20029;-75
2022/12/26 06:26:54;;;;;;;46.92;25.08;;;;;;;;;;5031233;28;20060;-75
2022/12/26 06:29:20;;;;;;;45.83;23.95;;;;;;;;;;5046251;28;20064;-76
2022/12/26 06:31:46;;;;;;;48.15;25.63;;;;;;;;;;5032777;28;20063;-75
2022/12/26 06:34:12;;;;;;;51.25;24.60;;;;;;;;;;5029676;28;20037;-75
2022/12/26 06:36:38;;;;;;;48.83;25.15;;;;;;;;;;5044507;28;20051;-76
2022/12/26 06:39:05;;;;;;;54.25;27.38;;;;;;;;;;5032558;28;20076;-75
2022/12/26 06:41:31;;;;;;;47.47;25.40;;;;;;;;;;5066819;22;20056;-77
2022/12/26 06:43:58;;;;;;;54.33;25.98;;;;;;;;;;5055996;28;20033;-79
2022/12/26 06:46:25;;;;;;;56.38;26.13;;;;;;;;;;5056421;28;20087;-78
2022/12/26 06:48:51;;;;;;;51.33;24.70;;;;;;;;;;5060700;28;20021;-78
2022/12/26 06:51:18;;;;;;;51.47;25.52;;;;;;;;;;5059672;28;20037;-78
2022/12/26 06:53:45;;;;;;;52.40;24.67;;;;;;;;;;5056922;28;20029;-77
2022/12/26 06:56:12;;;;;;;50.00;24.95;;;;;;;;;;5058282;28;20439;-78
2022/12/26 06:58:39;;;;;;;55.83;24.77;;;;;;;;;;5061801;28;20013;-78
2022/12/26 07:01:09;;;;;;;49.45;24.52;;;;;;;;;;5058762;28;20029;-77
2022/12/26 07:03:35;;;;;;;51.83;25.00;;;;;;;;;;5055749;28;20028;-77
2022/12/26 07:06:02;;;;;;;50.20;26.30;;;;;;;;;;5061704;28;20058;-79
2022/12/26 07:08:28;;;;;;;48.65;23.92;;;;;;;;;;5068237;28;20029;-77
2022/12/26 07:10:54;;;;;;;43.58;22.58;;;;;;;;;;5075022;28;20021;-77
2022/12/26 07:13:20;;;;;;;47.08;23.30;;;;;;;;;;5076864;28;20049;-78
2022/12/26 07:15:46;;;;;;;47.95;24.00;;;;;;;;;;5077010;28;20037;-78
2022/12/26 07:18:12;;;;;;;50.95;24.20;;;;;;;;;;5063664;28;20091;-78
2022/12/26 07:20:38;;;;;;;45.13;24.00;;;;;;;;;;5038357;28;20024;-78
2022/12/26 07:23:04;;;;;;;46.40;22.67;;;;;;;;;;5044814;28;20068;-80
2022/12/26 07:25:30;;;;;;;46.10;23.98;;;;;;;;;;5054369;28;20033;-77
2022/12/26 07:27:56;;;;;;;43.78;22.33;;;;;;;;;;5063563;28;20073;-78
2022/12/26 07:30:22;;;;;;;46.55;23.00;;;;;;;;;;5077191;28;20044;-77
2022/12/26 07:32:48;;;;;;;41.80;21.88;;;;;;;;;;5041990;28;20401;-78
2022/12/26 07:35:15;;;;;;;41.83;22.15;;;;;;;;;;5053146;28;20021;-75
2022/12/26 07:37:40;;;;;;;40.78;22.17;;;;;;;;;;5057465;28;20374;-78
2022/12/26 07:40:07;;;;;;;45.83;23.40;;;;;;;;;;5059520;28;20025;-76
2022/12/26 07:42:33;;;;;;;46.15;24.88;;;;;;;;;;5053237;28;20036;-78
2022/12/26 07:44:59;;;;;;;44.80;24.17;;;;;;;;;;5054363;28;20047;-78
2022/12/26 07:47:25;;;;;;;40.03;23.70;;;;;;;;;;5038925;28;20025;-78
2022/12/26 07:49:51;;;;;;;42.00;25.00;;;;;;;;;;5071455;28;20080;-79
2022/12/26 07:52:17;;;;;;;41.85;24.67;;;;;;;;;;5072965;28;20031;-77
2022/12/26 07:54:43;;;;;;;48.47;27.13;;;;;;;;;;5071946;28;20028;-78
2022/12/26 07:57:09;;;;;;;47.22;27.05;;;;;;;;;;5055227;28;20444;-76
2022/12/26 07:59:35;;;;;;;44.38;27.05;;;;;;;;;;5036608;28;20021;-77
2022/12/26 08:02:03;;;;;;;42.40;26.35;;;;;;;;;;5036814;28;20028;-78
2022/12/26 08:04:29;;;;;;;43.70;26.50;;;;;;;;;;5041046;28;20086;-77
2022/12/26 08:06:55;;;;;;;47.80;28.15;;;;;;;;;;5059597;28;20021;-77
2022/12/26 08:09:21;;;;;;;48.75;29.65;;;;;;;;;;5064084;28;20092;-77
2022/12/26 08:11:47;;;;;;;46.88;27.75;;;;;;;;;;5073224;28;20033;-77
2022/12/26 08:14:15;;;;;;;43.88;28.15;;;;;;;;;;5048829;28;20055;-77
2022/12/26 08:16:41;;;;;;;46.67;28.50;;;;;;;;;;5075952;28;20032;-77
2022/12/26 08:19:07;;;;;;;47.53;28.75;;;;;;;;;;5081351;28;20016;-77
2022/12/26 08:21:33;;;;;;;47.60;29.02;;;;;;;;;;5080915;28;20041;-78
2022/12/26 08:23:59;;;;;;;49.20;29.55;;;;;;;;;;5080947;28;20081;-78
2022/12/26 08:26:25;;;;;;;49.83;29.85;;;;;;;;;;5080907;28;20029;-76
2022/12/26 08:28:51;;;;;;;49.20;30.75;;;;;;;;;;5063911;28;20029;-77
2022/12/26 08:31:18;;;;;;;50.58;30.13;;;;;;;;;;5080253;28;20037;-79
2022/12/26 08:33:44;;;;;;;48.30;30.90;;;;;;;;;;5069123;28;20029;-77
2022/12/26 08:36:11;;;;;;;46.63;29.77;;;;;;;;;;5059869;28;20111;-78
2022/12/26 08:38:38;;;;;;;51.33;31.40;;;;;;;;;;5059277;28;20032;-77
2022/12/26 08:41:04;;;;;;;56.88;29.92;;;;;;;;;;5056992;28;20065;-77
2022/12/26 08:43:30;;;;;;;48.95;29.83;;;;;;;;;;5056770;28;20025;-77
2022/12/26 08:46:16;;;;;;;47.95;29.73;;;;;;;;;;5038588;28;20432;-77
2022/12/26 08:48:43;;;;;;;45.88;29.58;;;;;;;;;;5056023;28;20468;-78
2022/12/26 08:51:11;;;;;;;50.58;29.80;;;;;;;;;;5057480;28;20074;-77
2022/12/26 08:53:37;;;;;;;49.22;31.55;;;;;;;;;;5037914;28;20056;-78
2022/12/26 08:56:04;;;;;;;53.88;31.67;;;;;;;;;;5056464;28;20028;-78
2022/12/26 08:58:30;;;;;;;53.20;32.75;;;;;;;;;;5040015;28;20083;-78
2022/12/26 09:01:05;;;;;;;50.25;31.38;;;;;;;;;;5059583;28;20025;-78
2022/12/26 09:03:31;;;;;;;48.53;30.98;;;;;;;;;;5044389;28;20051;-78
2022/12/26 09:05:59;;;;;;;46.55;30.25;;;;;;;;;;5079498;28;20017;-79
2022/12/26 09:08:25;;;;;;;46.72;30.45;;;;;;;;;;5079700;28;20017;-78
2022/12/26 09:10:51;;;;;;;44.83;29.67;;;;;;;;;;5079578;28;20058;-77
2022/12/26 09:14:04;;;;;;;52.47;31.10;;;;;;;;;;5090748;28;20369;-79
2022/12/26 09:16:31;;;;;;;48.65;31.20;;;;;;;;;;5075896;28;20035;-79
2022/12/26 09:19:01;;;;;;;49.65;32.92;;;;;;;;;;5074420;28;20250;-78
2022/12/26 09:21:27;;;;;;;52.13;33.30;;;;;;;;;;5075307;28;20039;-79
2022/12/26 09:23:58;;;;;;;48.47;31.23;;;;;;;;;;5073956;28;20028;-78
2022/12/26 09:26:24;;;;;;;56.53;32.08;;;;;;;;;;5075142;28;20420;-79
2022/12/26 09:28:50;;;;;;;50.85;33.05;;;;;;;;;;5074481;28;20057;-78
2022/12/26 09:31:18;;;;;;;59.60;35.33;;;;;;;;;;5073677;28;20473;-79
2022/12/26 09:33:46;;;;;;;52.70;33.70;;;;;;;;;;5074401;28;20036;-79
2022/12/26 09:36:13;;;;;;;53.88;34.15;;;;;;;;;;5077139;28;20027;-78
2022/12/26 09:38:39;;;;;;;56.95;34.42;;;;;;;;;;5083857;28;20025;-79
2022/12/26 09:41:24;;;;;;;52.67;32.15;;;;;;;;;;5082576;28;20044;-79
2022/12/26 09:43:50;;;;;;;;;;;;;;;;;;5086450;28;20046;-78
2022/12/26 09:46:28;;;;;;;53.08;34.40;;;;;;;;;;5078772;28;20183;-79
2022/12/26 09:48:57;;;;;;;52.47;33.28;;;;;;;;;;5079164;28;20112;-79
2022/12/26 09:51:24;;;;;;;52.30;32.63;;;;;;;;;;5080981;28;20036;-79
2022/12/26 09:53:50;;;;;;;56.55;33.22;;;;;;;;;;5079960;28;20055;-78
2022/12/26 09:56:17;;;;;;;54.38;35.17;;;;;;;;;;5076944;28;20021;-78
2022/12/26 09:58:46;;;;;;;57.80;34.20;;;;;;;;;;5077769;28;20028;-78
2022/12/26 10:01:26;;;;;;;53.30;33.88;;;;;;;;;;5075779;28;20021;-79
2022/12/26 10:03:55;;;;;;;49.05;31.27;;;;;;;;;;5076989;28;20044;-79
2022/12/26 10:06:26;;;;;;;48.78;31.52;;;;;;;;;;5080124;28;20021;-79
2022/12/26 10:09:08;;;;;;;50.45;31.98;;;;;;;;;;5078614;28;20065;-78
2022/12/26 10:11:40;;;;;;;48.53;29.83;;;;;;;;;;5075116;28;20069;-78
2022/12/26 10:14:45;;;;;;;45.30;28.40;;;;;;;;;;5080625;28;20058;-80
2022/12/26 10:17:16;;;;;;;46.55;27.98;;;;;;;;;;5063105;28;20029;-79
2022/12/26 10:19:52;;;;;;;45.08;28.00;;;;;;;;;;5048333;28;20036;-79
2022/12/26 10:22:29;;;;;;;47.25;26.80;;;;;;;;;;5076520;28;20041;-79
2022/12/26 10:24:58;;;;;;;42.88;25.83;;;;;;;;;;5071897;28;20024;-79
2022/12/26 10:27:27;;;;;;;42.63;25.02;;;;;;;;;;5067247;28;20024;-78
2022/12/26 10:29:56;;;;;;;41.50;24.35;;;;;;;;;;5060660;28;20082;-73
2022/12/26 10:32:30;;;;;;;40.20;24.25;;;;;;;;;;5054825;28;20370;-73
2022/12/26 10:34:56;;;;;;;46.47;24.85;;;;;;;;;;5059195;28;20147;-75
2022/12/26 10:37:25;;;;;;;41.72;24.40;;;;;;;;;;5056337;28;20033;-74
2022/12/26 10:40:16;;;;;;;36.72;23.38;;;;;;;;;;5062046;28;20469;-79
2022/12/26 10:42:43;;;;;;;47.33;24.65;;;;;;;;;;5063403;28;20040;-79
2022/12/26 10:45:33;;;;;;;42.75;24.70;;;;;;;;;;5061205;28;20093;-77
2022/12/26 10:47:59;;;;;;;43.38;23.65;;;;;;;;;;5059410;28;20512;-80
2022/12/26 10:50:27;;;;;;;40.42;24.05;;;;;;;;;;5061536;28;20025;-79
2022/12/26 10:52:53;;;;;;;38.85;22.73;;;;;;;;;;5062097;28;20029;-80
2022/12/26 10:55:20;;;;;;;39.83;24.33;;;;;;;;;;5064159;28;20029;-79
2022/12/26 10:57:48;;;;;;;41.20;23.23;;;;;;;;;;5069048;28;20074;-78
2022/12/26 11:00:17;;;;;;;39.72;22.17;;;;;;;;;;5075272;28;20009;-78
2022/12/26 11:02:43;;;;;;;37.58;22.70;;;;;;;;;;5078679;28;20021;-79
2022/12/26 11:05:11;;;;;;;36.97;21.90;;;;;;;;;;5079055;28;20041;-79
2022/12/26 11:07:44;;;;;;;39.08;22.48;;;;;;;;;;5079001;28;20036;-78
2022/12/26 11:10:16;;;;;;;36.88;21.98;;;;;;;;;;5079602;28;20020;-79
2022/12/26 11:12:49;;;;;;;36.53;22.63;;;;;;;;;;5076502;28;20041;-80
2022/12/26 11:15:30;;;;;;;39.53;23.40;;;;;;;;;;5068230;28;20021;-79
2022/12/26 11:18:06;;;;;;;38.53;22.77;;;;;;;;;;5074154;28;20043;-78
2022/12/26 11:20:32;;;;;;;34.78;20.80;;;;;;;;;;5070834;28;20414;-78
2022/12/26 11:23:16;;;;;;;38.10;23.05;;;;;;;;;;5070624;28;20021;-78
2022/12/26 11:25:52;;;;;;;43.72;24.13;;;;;;;;;;5065826;28;20091;-78
2022/12/26 11:28:20;;;;;;;38.22;21.48;;;;;;;;;;5065444;28;20117;-79
2022/12/26 11:30:47;;;;;;;40.47;20.85;;;;;;;;;;5075429;28;20053;-79
2022/12/26 11:33:33;;;;;;;39.60;21.20;;;;;;;;;;5078381;28;20036;-79
2022/12/26 11:36:11;;;;;;;35.00;20.60;;;;;;;;;;5068515;28;20021;-80
2022/12/26 11:38:43;;;;;;;35.03;19.95;;;;;;;;;;5078962;28;20041;-79
2022/12/26 11:41:38;;;;;;;33.42;20.25;;;;;;;;;;5078926;28;20041;-79
2022/12/26 11:44:11;;;;;;;36.72;19.63;;;;;;;;;;5078903;28;20009;-80
2022/12/26 11:46:37;;;;;;;41.47;20.65;;;;;;;;;;5078529;28;20017;-78
2022/12/26 11:49:03;;;;;;;30.50;18.88;;;;;;;;;;5079034;28;20083;-79
2022/12/26 11:51:33;;;;;;;33.50;18.70;;;;;;;;;;5078715;28;20037;-79
2022/12/26 11:54:12;;;;;;;33.05;18.80;;;;;;;;;;5078760;28;20056;-78
2022/12/26 11:56:38;;;;;;;32.35;18.45;;;;;;;;;;5078234;28;20024;-81
2022/12/26 11:59:10;;;;;;;38.75;19.30;;;;;;;;;;5078042;28;20037;-78
2022/12/26 12:01:37;;;;;;;31.48;18.15;;;;;;;;;;5078559;28;20029;-79
2022/12/26 12:04:03;;;;;;;28.45;16.80;;;;;;;;;;5078391;28;20009;-79
2022/12/26 12:06:42;;;;;;;32.35;17.77;;;;;;;;;;5078089;28;20024;-79
2022/12/26 12:09:15;;;;;;;31.58;17.45;;;;;;;;;;5078133;28;20001;-78
2022/12/26 12:11:44;;;;;;;30.52;17.13;;;;;;;;;;5077387;28;20033;-80
2022/12/26 12:14:10;;;;;;;35.55;16.85;;;;;;;;;;5066604;28;20028;-79
2022/12/26 12:16:39;;;;;;;33.30;16.30;;;;;;;;;;5059430;28;20178;-79
2022/12/26 12:19:27;;;;;;;26.92;15.75;;;;;;;;;;5060508;28;20021;-79
2022/12/26 12:22:08;;;;;;;27.30;15.70;;;;;;;;;;5062069;28;20025;-79
2022/12/26 12:24:52;;;;;;;25.65;14.50;;;;;;;;;;5064053;28;20021;-79
2022/12/26 12:27:18;;;;;;;26.98;15.63;;;;;;;;;;5064179;28;20040;-80
2022/12/26 12:30:00;;;;;;;29.75;15.68;;;;;;;;;;5060273;28;20021;-79
2022/12/26 12:32:44;;;;;;;28.75;15.05;;;;;;;;;;5059427;28;20065;-78
2022/12/26 12:35:29;;;;;;;34.45;15.30;;;;;;;;;;5060642;28;20032;-80
2022/12/26 12:38:14;;;;;;;28.38;14.80;;;;;;;;;;5058670;28;20465;-80
2022/12/26 12:40:50;;;;;;;30.80;14.60;;;;;;;;;;5059419;28;20044;-79
2022/12/26 12:43:19;;;;;;;24.98;14.32;;;;;;;;;;5057544;28;20047;-78
2022/12/26 12:46:06;;;;;;;32.55;13.93;;;;;;;;;;5056886;28;20031;-79
2022/12/26 12:48:44;;;;;;;33.25;12.93;;;;;;;;;;5058631;28;20108;-79
2022/12/26 12:51:28;;;;;;;26.52;13.00;;;;;;;;;;5060026;28;20027;-79
2022/12/26 12:53:57;;;;;;;18.45;11.55;;;;;;;;;;5058319;28;20028;-78
2022/12/26 12:56:32;;;;;;;23.83;11.35;;;;;;;;;;5056858;28;20098;-79
2022/12/26 12:59:07;;;;;;;17.05;9.45;;;;;;;;;;5060291;28;20025;-79
2022/12/26 13:01:33;;;;;;;;;;;;;;;;;;5060784;28;20091;-80
2022/12/26 13:04:17;;;;;;;22.35;7.55;;;;;;;;;;5064254;28;19991;-80
2022/12/26 13:06:54;;;;;;;12.82;7.07;;;;;;;;;;5062236;28;20040;-79
2022/12/26 13:09:23;;;;;;;16.02;6.07;;;;;;;;;;5061320;28;20474;-78
2022/12/26 13:11:52;;;;;;;16.10;5.90;;;;;;;;;;5061802;28;20112;-80
2022/12/26 13:14:26;;;;;;;17.70;5.75;;;;;;;;;;5062944;28;20045;-78
2022/12/26 13:18:00;;;;;;;15.95;4.60;;;;;;;;;;5137794;27;20298;-78
2022/12/26 13:20:32;;;;;;;10.02;2.75;;;;;;;;;;5115388;28;20035;-77
2022/12/26 13:25:57;;;;;;;8.93;1.80;;;;;;;;;;5112138;28;20031;-79
2022/12/26 13:28:27;;;;;;;11.70;2.13;;;;;;;;;;5115896;28;20028;-78
2022/12/26 13:30:54;;;;;;;9.98;2.17;;;;;;;;;;5122602;28;20087;-81
2022/12/26 13:33:21;;;;;;;9.82;2.05;;;;;;;;;;5120737;28;20077;-78
2022/12/26 13:36:00;;;;;;;8.10;1.88;;;;;;;;;;5116908;28;20038;-79
2022/12/26 13:38:46;;;;;;;9.27;1.75;;;;;;;;;;5113631;28;20033;-78
2022/12/26 13:44:04;;;;;;;9.27;1.80;;;;;;;;;;5115850;28;20038;-79
2022/12/26 13:46:36;;;;;;;16.35;2.63;;;;;;;;;;5097032;28;20034;-79
2022/12/26 13:49:02;;;;;;;14.95;2.83;;;;;;;;;;5097659;28;20028;-79
2022/12/26 13:51:57;;;;;;;9.18;2.72;;;;;;;;;;5114908;28;20400;-78
2022/12/26 13:54:24;;;;;;;15.15;2.65;;;;;;;;;;5063036;28;20065;-80
2022/12/26 13:56:50;;;;;;;7.80;1.77;;;;;;;;;;5117145;28;20404;-78
2022/12/26 13:59:21;;;;;;;17.45;5.80;;;;;;;;;;5117109;28;20016;-79
2022/12/26 14:01:56;;;;;;;18.90;3.00;;;;;;;;;;5117418;28;20020;-79
2022/12/26 14:04:40;;;;;;;15.88;3.42;;;;;;;;;;5116480;28;20103;-78
2022/12/26 14:07:17;;;;;;;13.23;2.00;;;;;;;;;;5114854;28;20053;-79
2022/12/26 14:09:57;;;;;;;16.45;2.92;;;;;;;;;;5114116;28;20124;-79
2022/12/26 14:12:41;;;;;;;16.08;2.38;;;;;;;;;;5118647;28;20027;-79
2022/12/26 14:15:07;;;;;;;18.52;2.97;;;;;;;;;;5098573;28;20050;-78
2022/12/26 14:17:52;;;;;;;11.38;1.90;;;;;;;;;;5116229;28;20024;-78
2022/12/26 14:20:39;;;;;;;16.20;2.58;;;;;;;;;;5120661;28;20031;-78
2022/12/26 14:23:05;;;;;;;13.77;2.30;;;;;;;;;;5126220;28;20385;-78
2022/12/26 14:25:38;;;;;;;22.98;2.58;;;;;;;;;;5122872;28;20031;-77
2022/12/26 14:28:04;;;;;;;17.98;2.70;;;;;;;;;;5107691;28;20031;-78
2022/12/26 14:30:48;;;;;;;18.08;2.72;;;;;;;;;;5084286;28;20377;-78
2022/12/26 14:33:14;;;;;;;28.17;6.82;;;;;;;;;;5102635;28;20021;-78
2022/12/26 14:35:57;;;;;;;23.17;2.75;;;;;;;;;;5091182;28;20039;-79
2022/12/26 14:38:35;;;;;;;20.67;2.85;;;;;;;;;;5111271;28;20091;-79
2022/12/26 14:41:07;;;;;;;22.35;2.88;;;;;;;;;;5111426;28;20042;-79
2022/12/26 14:43:34;;;;;;;22.50;3.80;;;;;;;;;;5082970;28;20027;-79
2022/12/26 14:46:01;;;;;;;17.80;2.60;;;;;;;;;;5106257;28;20447;-78
2022/12/26 14:48:27;;;;;;;23.63;2.85;;;;;;;;;;5100859;28;20032;-78
2022/12/26 14:50:54;;;;;;;22.88;2.65;;;;;;;;;;5101737;28;20093;-78
2022/12/26 14:53:26;;;;;;;24.17;3.58;;;;;;;;;;5103374;28;20058;-80
2022/12/26 14:55:55;;;;;;;17.85;3.10;;;;;;;;;;5084074;28;20054;-79
2022/12/26 14:58:30;;;;;;;22.15;2.97;;;;;;;;;;5086421;28;20388;-79
2022/12/26 15:01:16;;;;;;;27.08;3.42;;;;;;;;;;5091958;28;20039;-78
2022/12/26 15:04:01;;;;;;;25.08;4.03;;;;;;;;;;5107741;28;20074;-77
2022/12/26 15:06:30;;;;;;;18.27;2.90;;;;;;;;;;5114535;28;20043;-78
2022/12/26 15:09:08;;;;;;;35.33;4.53;;;;;;;;;;5120372;28;20023;-78
2022/12/26 15:11:34;;;;;;;19.02;3.35;;;;;;;;;;5119266;28;20012;-77
2022/12/26 15:14:00;;;;;;;29.75;3.58;;;;;;;;;;5111904;28;20488;-78
2022/12/26 15:16:32;;;;;;;25.33;3.22;;;;;;;;;;5116056;28;20047;-78
2022/12/26 15:19:17;;;;;;;23.30;3.05;;;;;;;;;;5098954;28;20077;-78
2022/12/26 15:21:43;;;;;;;;;;;;;;;;;;5095461;28;20040;-78
2022/12/26 15:24:28;;;;;;;30.65;3.83;;;;;;;;;;5101666;28;19958;-78
2022/12/26 15:27:12;;;;;;;28.05;3.40;;;;;;;;;;5119403;28;20023;-79
2022/12/26 15:29:57;;;;;;;21.80;3.30;;;;;;;;;;5117172;28;20028;-79
2022/12/26 15:32:36;;;;;;;20.77;3.13;;;;;;;;;;5108092;28;20020;-78
2022/12/26 15:35:09;;;;;;;29.50;3.50;;;;;;;;;;5119664;28;20016;-77
2022/12/26 15:37:38;;;;;;;32.58;4.20;;;;;;;;;;5098186;28;20024;-78
2022/12/26 15:40:15;;;;;;;31.70;3.92;;;;;;;;;;5095763;28;20408;-78
2022/12/26 15:42:44;;;;;;;26.48;3.70;;;;;;;;;;5098270;28;20031;-77
2022/12/26 15:45:19;;;;;;;30.80;3.95;;;;;;;;;;5098225;28;20035;-78
2022/12/26 15:48:01;;;;;;;42.75;4.63;;;;;;;;;;5098074;28;20366;-80
2022/12/26 15:50:30;;;;;;;32.60;4.22;;;;;;;;;;5099862;28;20088;-79
2022/12/26 15:53:02;;;;;;;28.88;4.65;;;;;;;;;;5096213;28;20032;-78
2022/12/26 15:55:42;;;;;;;27.25;4.55;;;;;;;;;;5098214;28;20027;-78
2022/12/26 15:58:25;;;;;;;38.15;5.20;;;;;;;;;;5099748;28;20074;-78
2022/12/26 16:00:52;;;;;;;31.90;4.07;;;;;;;;;;5097438;28;20020;-77
2022/12/26 16:03:31;;;;;;;31.00;3.95;;;;;;;;;;5099890;28;20047;-78
2022/12/26 16:06:12;;;;;;;32.75;4.38;;;;;;;;;;5099247;28;20069;-79
2022/12/26 16:08:54;;;;;;;39.55;4.88;;;;;;;;;;5105347;28;20028;-79
2022/12/26 16:11:25;;;;;;;43.17;8.38;;;;;;;;;;5115086;28;20070;-77
2022/12/26 16:13:56;;;;;;;32.78;3.90;;;;;;;;;;5115228;28;20061;-78
2022/12/26 16:16:26;;;;;;;41.45;6.10;;;;;;;;;;5099593;28;20036;-78
2022/12/26 16:18:52;;;;;;;33.55;5.13;;;;;;;;;;5098814;28;20095;-78
2022/12/26 16:24:07;;;;;;;36.80;5.43;;;;;;;;;;5097114;28;20039;-78
2022/12/26 16:26:35;;;;;;;42.22;5.00;;;;;;;;;;5077554;28;20035;-78
2022/12/26 16:29:01;;;;;;;39.45;5.18;;;;;;;;;;5079430;28;20028;-77
2022/12/26 16:31:29;;;;;;;44.28;4.25;;;;;;;;;;5082824;28;20088;-78
2022/12/26 16:33:57;;;;;;;32.80;4.88;;;;;;;;;;5098760;28;20031;-79
2022/12/26 16:36:24;;;;;;;35.03;4.20;;;;;;;;;;5104809;28;20051;-78
2022/12/26 16:38:50;;;;;;;25.48;4.18;;;;;;;;;;5104075;28;20093;-78
2022/12/26 16:41:27;;;;;;;33.70;4.97;;;;;;;;;;5108270;28;20020;-78
2022/12/26 16:43:53;;;;;;;35.30;5.55;;;;;;;;;;5110251;28;20080;-79
2022/12/26 16:46:21;;;;;;;30.60;5.80;;;;;;;;;;5109049;28;20107;-77
2022/12/26 16:48:52;;;;;;;46.63;5.82;;;;;;;;;;5088210;28;20040;-77
2022/12/26 16:51:38;;;;;;;33.05;4.85;;;;;;;;;;5106755;28;20015;-78
2022/12/26 16:54:16;;;;;;;31.50;4.40;;;;;;;;;;5090477;28;20067;-79
2022/12/26 16:56:42;;;;;;;33.85;4.90;;;;;;;;;;5103485;28;20016;-79